Time;durP1;ratioP1;P1;durP2;ratioP2;P2;SDS_P1;SDS_P2;PMS_P1;PMS_P2;Temp;Humidity;BMP_temperature;BMP_pressure;BME280_temperature;BME280_humidity;BME280_pressure;Samples;Min_cycle;Max_cycle;Signal;HPM_P1;HPM_P2
2023/11/21 00:02:04;;;;;;;31.60;18.70;;;10.30;99.90;;;;;;5040742;27;20025;-75
2023/11/21 00:04:30;;;;;;;47.00;23.08;;;10.30;99.90;;;;;;5033950;27;20489;-77
2023/11/21 00:06:56;;;;;;;34.15;19.92;;;10.30;99.90;;;;;;5036106;27;20045;-76
2023/11/21 00:09:21;;;;;;;38.53;22.30;;;10.30;99.90;;;;;;5038258;27;20025;-72
2023/11/21 00:11:47;;;;;;;50.53;23.63;;;10.30;99.90;;;;;;5028749;28;20029;-74
2023/11/21 00:14:15;;;;;;;34.95;21.92;;;10.30;99.90;;;;;;5036757;27;20033;-75
2023/11/21 00:16:41;;;;;;;33.35;21.13;;;10.40;99.90;;;;;;5036952;27;20019;-75
2023/11/21 00:19:07;;;;;;;48.85;23.77;;;10.40;99.90;;;;;;5038906;27;20026;-72
2023/11/21 00:21:33;;;;;;;46.42;23.90;;;10.40;99.90;;;;;;5038722;27;20036;-76
2023/11/21 00:23:58;;;;;;;49.85;25.92;;;10.40;99.90;;;;;;5035950;27;20381;-77
2023/11/21 00:26:24;;;;;;;41.67;25.42;;;10.40;99.90;;;;;;5031911;27;20029;-77
2023/11/21 00:28:50;;;;;;;38.78;22.67;;;10.40;99.90;;;;;;5037831;27;20062;-71
2023/11/21 00:31:16;;;;;;;41.90;24.00;;;10.40;99.90;;;;;;5036147;27;21916;-72
2023/11/21 00:33:43;;;;;;;53.40;27.48;;;10.30;99.90;;;;;;5041744;27;20602;-73
2023/11/21 00:36:09;;;;;;;47.65;26.00;;;10.40;99.90;;;;;;5037484;27;20513;-75
2023/11/21 00:38:36;;;;;;;42.75;24.35;;;10.40;99.90;;;;;;5042844;27;20021;-75
2023/11/21 00:41:02;;;;;;;43.05;25.23;;;10.40;99.90;;;;;;5028390;28;20425;-77
2023/11/21 00:43:28;;;;;;;25.80;15.00;;;10.40;99.90;;;;;;5026291;27;20026;-76
2023/11/21 00:45:54;;;;;;;45.97;25.73;;;10.40;99.90;;;;;;5034053;27;20155;-72
2023/11/21 00:48:19;;;;;;;43.10;25.48;;;10.40;99.90;;;;;;5023804;27;20108;-72
2023/11/21 00:50:46;;;;;;;42.90;25.05;;;10.40;99.90;;;;;;5027299;27;20041;-72
2023/11/21 00:53:11;;;;;;;48.83;28.08;;;10.40;99.90;;;;;;5033888;27;20029;-76
2023/11/21 00:55:40;;;;;;;43.72;24.73;;;10.40;99.90;;;;;;5023020;27;20022;-74
2023/11/21 00:58:06;;;;;;;45.15;26.23;;;10.40;99.90;;;;;;5031583;27;20030;-76
2023/11/21 01:00:33;;;;;;;38.67;23.55;;;10.40;99.90;;;;;;5032890;27;20020;-75
2023/11/21 01:02:59;;;;;;;51.05;27.63;;;10.40;99.90;;;;;;5035575;27;20112;-73
2023/11/21 01:05:25;;;;;;;52.00;27.25;;;10.40;99.90;;;;;;5031784;27;20033;-75
2023/11/21 01:07:50;;;;;;;44.15;25.63;;;10.40;99.90;;;;;;5017229;27;20037;-75
2023/11/21 01:10:17;;;;;;;60.28;28.65;;;10.30;99.90;;;;;;5032320;27;20034;-72
2023/11/21 01:12:43;;;;;;;45.30;26.85;;;10.30;99.90;;;;;;5028056;27;20051;-73
2023/11/21 01:15:08;;;;;;;45.63;25.85;;;10.40;99.90;;;;;;5033310;27;20470;-75
2023/11/21 01:17:35;;;;;;;51.35;28.85;;;10.40;99.90;;;;;;5031941;27;20029;-71
2023/11/21 01:20:02;;;;;;;51.15;26.52;;;10.40;99.90;;;;;;5019490;28;20036;-75
2023/11/21 01:22:28;;;;;;;46.58;26.50;;;10.40;99.90;;;;;;5031186;27;20068;-76
2023/11/21 01:24:54;;;;;;;51.80;27.35;;;10.40;99.90;;;;;;5035690;27;20029;-75
2023/11/21 01:27:20;;;;;;;61.20;28.92;;;10.40;99.90;;;;;;5035747;27;20040;-75
2023/11/21 01:29:46;;;;;;;43.97;27.25;;;10.40;99.90;;;;;;5030663;27;20046;-74
2023/11/21 01:32:12;;;;;;;61.72;29.52;;;10.30;99.90;;;;;;5021113;27;20037;-74
2023/11/21 01:34:38;;;;;;;59.33;29.92;;;10.30;99.90;;;;;;5039026;27;20014;-73
2023/11/21 01:37:05;;;;;;;52.05;27.80;;;10.30;99.90;;;;;;5028653;27;20048;-73
2023/11/21 01:39:31;;;;;;;69.80;31.33;;;10.30;99.90;;;;;;5024500;27;20015;-74
2023/11/21 01:42:00;;;;;;;78.15;30.73;;;10.30;99.90;;;;;;5028700;27;20074;-73
2023/11/21 01:44:25;;;;;;;67.55;30.08;;;10.30;99.90;;;;;;5025798;27;20081;-75
2023/11/21 01:46:52;;;;;;;70.93;31.20;;;10.30;99.90;;;;;;5027417;27;20045;-73
2023/11/21 01:49:18;;;;;;;82.45;33.65;;;10.30;99.90;;;;;;5023299;27;20077;-73
2023/11/21 01:51:49;;;;;;;75.13;32.25;;;10.30;99.90;;;;;;5020641;27;20579;-73
2023/11/21 01:54:17;;;;;;;69.55;31.35;;;10.30;99.90;;;;;;5034863;27;20064;-73
2023/11/21 01:56:45;;;;;;;75.63;31.70;;;10.30;99.90;;;;;;5033343;27;20018;-75
2023/11/21 01:59:14;;;;;;;74.47;31.00;;;10.30;99.90;;;;;;5023757;28;20479;-72
2023/11/21 02:01:41;;;;;;;71.35;31.58;;;10.30;99.90;;;;;;5034047;27;20066;-74
2023/11/21 02:04:08;;;;;;;67.15;29.48;;;10.30;99.90;;;;;;5036144;27;20021;-73
2023/11/21 02:06:34;;;;;;;80.07;31.38;;;10.30;99.90;;;;;;5030408;28;20079;-73
2023/11/21 02:08:59;;;;;;;67.47;30.02;;;10.20;99.90;;;;;;5028644;27;20038;-72
2023/11/21 02:11:27;;;;;;;69.28;30.58;;;10.20;99.90;;;;;;5024219;28;20036;-72
2023/11/21 02:13:53;;;;;;;69.95;30.85;;;10.20;99.90;;;;;;5016709;28;20045;-73
2023/11/21 02:16:20;;;;;;;65.38;30.50;;;10.20;99.90;;;;;;5028471;28;20033;-73
2023/11/21 02:18:48;;;;;;;59.97;29.38;;;10.20;99.90;;;;;;5021331;28;20025;-75
2023/11/21 02:21:14;;;;;;;67.18;31.50;;;10.20;99.90;;;;;;5017819;28;20390;-75
2023/11/21 02:23:44;;;;;;;65.00;30.73;;;10.20;99.90;;;;;;5032168;28;20028;-76
2023/11/21 02:26:10;;;;;;;67.03;30.90;;;10.20;99.90;;;;;;5019564;28;20065;-73
2023/11/21 02:28:36;;;;;;;64.82;32.05;;;10.20;99.90;;;;;;5023038;28;20018;-73
2023/11/21 02:31:04;;;;;;;62.63;30.30;;;10.20;99.90;;;;;;5029802;28;20025;-75
2023/11/21 02:33:33;;;;;;;71.97;31.50;;;10.20;99.90;;;;;;5030523;28;20049;-75
2023/11/21 02:36:00;;;;;;;66.28;30.08;;;10.30;99.90;;;;;;5023470;28;20033;-73
2023/11/21 02:38:25;;;;;;;64.88;30.92;;;10.30;99.90;;;;;;5013112;28;20013;-75
2023/11/21 02:40:51;;;;;;;56.10;30.15;;;10.20;99.90;;;;;;5022344;28;20018;-75
2023/11/21 02:43:17;;;;;;;56.50;28.27;;;10.30;99.90;;;;;;5023574;28;20573;-72
2023/11/21 02:45:43;;;;;;;62.08;30.13;;;10.30;99.90;;;;;;5024344;27;20045;-73
2023/11/21 02:48:09;;;;;;;59.08;31.40;;;10.30;99.90;;;;;;5033698;27;20049;-72
2023/11/21 02:50:35;;;;;;;78.22;35.03;;;10.30;99.90;;;;;;5024644;27;20030;-75
2023/11/21 02:53:01;;;;;;;92.07;34.22;;;10.30;99.90;;;;;;5034852;27;20026;-72
2023/11/21 02:55:27;;;;;;;99.47;34.63;;;10.30;99.90;;;;;;5030663;27;20032;-74
2023/11/21 02:57:56;;;;;;;239.65;44.65;;;10.30;99.90;;;;;;5045376;27;20019;-72
2023/11/21 03:00:24;;;;;;;99.32;36.28;;;10.20;99.90;;;;;;5034991;27;20037;-76
2023/11/21 03:02:50;;;;;;;96.22;35.78;;;10.20;99.90;;;;;;5038574;27;20015;-76
2023/11/21 03:05:15;;;;;;;101.70;37.22;;;10.20;99.90;;;;;;5027241;27;20033;-75
2023/11/21 03:07:41;;;;;;;92.57;33.78;;;10.30;99.90;;;;;;5035011;27;20025;-73
2023/11/21 03:10:11;;;;;;;149.80;39.40;;;10.30;99.90;;;;;;5033296;27;20033;-75
2023/11/21 03:12:37;;;;;;;272.13;43.90;;;10.20;99.90;;;;;;5027249;28;20032;-72
2023/11/21 03:15:07;;;;;;;129.85;39.60;;;10.30;99.90;;;;;;5028504;27;20113;-74
2023/11/21 03:17:36;;;;;;;171.43;41.17;;;10.30;99.90;;;;;;5027105;27;20382;-75
2023/11/21 03:20:03;;;;;;;107.43;38.90;;;10.30;99.90;;;;;;5038650;27;20067;-75
2023/11/21 03:22:29;;;;;;;180.57;41.63;;;10.30;99.90;;;;;;5024063;27;20033;-75
2023/11/21 03:24:55;;;;;;;141.48;40.45;;;10.30;99.90;;;;;;5037646;27;20105;-73
2023/11/21 03:27:20;;;;;;;96.95;35.65;;;10.30;99.90;;;;;;5037605;27;20470;-73
2023/11/21 03:29:48;;;;;;;138.20;40.35;;;10.20;99.90;;;;;;5029026;27;20360;-75
2023/11/21 03:32:13;;;;;;;144.10;40.00;;;10.30;99.90;;;;;;5022761;27;20474;-72
2023/11/21 03:34:57;;;;;;;134.93;40.65;;;10.30;99.90;;;;;;5032360;27;20046;-72
2023/11/21 03:37:24;;;;;;;236.15;41.60;;;10.20;99.90;;;;;;5029433;27;20011;-74
2023/11/21 03:39:50;;;;;;;100.78;35.00;;;10.30;99.90;;;;;;5032342;27;20115;-75
2023/11/21 03:42:16;;;;;;;107.65;34.65;;;10.30;99.90;;;;;;5032000;27;20420;-73
2023/11/21 03:44:42;;;;;;;114.35;35.17;;;10.40;99.90;;;;;;5024759;27;20033;-76
2023/11/21 03:47:08;;;;;;;130.85;37.58;;;10.30;99.90;;;;;;5032137;27;20026;-73
2023/11/21 03:49:33;;;;;;;203.38;41.08;;;10.30;99.90;;;;;;5022740;27;20075;-76
2023/11/21 03:51:59;;;;;;;141.18;37.00;;;10.40;99.90;;;;;;5031529;27;20032;-72
2023/11/21 03:54:25;;;;;;;92.25;32.90;;;10.30;99.90;;;;;;5033681;27;20032;-72
2023/11/21 03:56:52;;;;;;;159.38;34.58;;;10.30;99.90;;;;;;5029721;27;20049;-72
2023/11/21 03:59:17;;;;;;;122.07;34.72;;;10.30;99.90;;;;;;5017358;27;20026;-76
2023/11/21 04:01:43;;;;;;;178.68;36.63;;;10.40;99.90;;;;;;5037916;27;20394;-75
2023/11/21 04:04:08;;;;;;;113.63;33.50;;;10.40;99.90;;;;;;5031083;27;20030;-72
2023/11/21 04:06:35;;;;;;;113.18;30.48;;;10.40;99.90;;;;;;5017115;27;20102;-74
2023/11/21 04:09:01;;;;;;;82.05;29.15;;;10.30;99.90;;;;;;5023334;27;20029;-73
2023/11/21 04:11:29;;;;;;;120.03;33.90;;;10.30;99.90;;;;;;5032989;27;20036;-73
2023/11/21 04:13:55;;;;;;;153.25;33.17;;;10.30;99.90;;;;;;5038883;27;20022;-72
2023/11/21 04:16:22;;;;;;;150.95;35.25;;;10.30;99.90;;;;;;5034492;27;20029;-73
2023/11/21 04:18:47;;;;;;;121.75;30.55;;;10.40;99.90;;;;;;5026051;27;20077;-72
2023/11/21 04:21:13;;;;;;;160.23;31.75;;;10.30;99.90;;;;;;5028998;27;20117;-73
2023/11/21 04:23:39;;;;;;;91.28;28.23;;;10.20;99.90;;;;;;5035265;27;20507;-75
2023/11/21 04:26:05;;;;;;;99.75;28.65;;;10.20;99.90;;;;;;5015856;28;20042;-74
2023/11/21 04:28:31;;;;;;;110.32;29.50;;;10.20;99.90;;;;;;5030677;27;20040;-73
2023/11/21 04:30:57;;;;;;;177.85;31.45;;;10.20;99.90;;;;;;5017795;27;20037;-71
2023/11/21 04:33:23;;;;;;;91.40;25.20;;;10.20;99.90;;;;;;5020598;27;20026;-72
2023/11/21 04:35:48;;;;;;;168.88;30.92;;;10.10;99.90;;;;;;5034510;27;20086;-73
2023/11/21 04:38:14;;;;;;;103.65;26.23;;;10.10;99.90;;;;;;5024739;27;20470;-73
2023/11/21 04:40:40;;;;;;;89.70;26.27;;;10.10;99.90;;;;;;5029485;27;20052;-72
2023/11/21 04:43:05;;;;;;;83.25;25.15;;;10.10;99.90;;;;;;5018901;27;20470;-72
2023/11/21 04:45:31;;;;;;;127.22;28.30;;;10.10;99.90;;;;;;5035008;27;20115;-72
2023/11/21 04:47:57;;;;;;;135.10;28.40;;;10.10;99.90;;;;;;5027411;27;20480;-73
2023/11/21 04:50:22;;;;;;;112.57;25.92;;;10.10;99.90;;;;;;5030075;27;20546;-74
2023/11/21 04:52:48;;;;;;;109.03;26.02;;;10.20;99.90;;;;;;5029312;27;20086;-72
2023/11/21 04:55:15;;;;;;;97.10;26.83;;;10.10;99.90;;;;;;5034210;27;20524;-73
2023/11/21 04:57:41;;;;;;;113.00;26.55;;;10.20;99.90;;;;;;5018164;27;20348;-71
2023/11/21 05:00:09;;;;;;;79.15;26.23;;;10.20;99.90;;;;;;5036615;27;20441;-72
2023/11/21 05:02:35;;;;;;;74.05;25.77;;;10.20;99.90;;;;;;5021424;27;20054;-72
2023/11/21 05:05:01;;;;;;;79.90;26.23;;;10.20;99.90;;;;;;5022994;27;20061;-72
2023/11/21 05:07:29;;;;;;;96.20;29.42;;;10.20;99.90;;;;;;5020746;27;20036;-72
2023/11/21 05:09:55;;;;;;;106.72;27.50;;;10.20;99.90;;;;;;5027757;27;20048;-72
2023/11/21 05:12:24;;;;;;;103.10;29.15;;;10.10;99.90;;;;;;5018295;27;20034;-71
2023/11/21 05:14:51;;;;;;;144.80;29.70;;;10.20;99.90;;;;;;5023556;27;20048;-73
2023/11/21 05:17:16;;;;;;;91.25;28.33;;;10.30;99.90;;;;;;5021565;27;20069;-72
2023/11/21 05:19:45;;;;;;;107.07;28.48;;;10.30;99.90;;;;;;5022996;27;20025;-72
2023/11/21 05:22:12;;;;;;;121.55;30.00;;;10.30;99.90;;;;;;5023021;27;20026;-71
2023/11/21 05:24:39;;;;;;;118.13;28.20;;;10.20;99.90;;;;;;5022597;27;20021;-73
2023/11/21 05:27:05;;;;;;;82.15;27.35;;;10.20;99.90;;;;;;5024195;27;20414;-72
2023/11/21 05:29:31;;;;;;;168.07;32.67;;;10.20;99.90;;;;;;5032173;27;20019;-73
2023/11/21 05:31:56;;;;;;;132.80;32.15;;;10.20;99.90;;;;;;5022877;27;20082;-71
2023/11/21 05:34:23;;;;;;;84.10;29.23;;;10.30;99.90;;;;;;5024773;27;20026;-74
2023/11/21 05:36:50;;;;;;;119.85;31.10;;;10.30;99.90;;;;;;5032724;27;20055;-71
2023/11/21 05:39:19;;;;;;;98.78;28.17;;;10.30;99.90;;;;;;5028970;27;20076;-72
2023/11/21 05:41:45;;;;;;;100.57;27.88;;;10.20;99.90;;;;;;5024210;28;20070;-71
2023/11/21 05:44:12;;;;;;;76.78;27.10;;;10.30;99.90;;;;;;5026122;27;20524;-72
2023/11/21 05:46:37;;;;;;;81.07;29.17;;;10.20;99.90;;;;;;5031452;27;20033;-71
2023/11/21 05:49:03;;;;;;;69.65;26.60;;;10.20;99.90;;;;;;5028522;27;20382;-72
2023/11/21 05:51:29;;;;;;;138.65;31.33;;;10.20;99.90;;;;;;5025450;27;20034;-72
2023/11/21 05:53:54;;;;;;;94.32;29.05;;;10.20;99.90;;;;;;5027314;27;20454;-72
2023/11/21 05:56:20;;;;;;;109.30;32.22;;;10.20;99.90;;;;;;5038054;27;20743;-75
2023/11/21 05:58:46;;;;;;;108.38;30.83;;;10.30;99.90;;;;;;5030771;27;20025;-73
2023/11/21 06:01:12;;;;;;;112.13;31.13;;;10.20;99.90;;;;;;5019915;28;20403;-74
2023/11/21 06:03:38;;;;;;;142.75;30.75;;;10.20;99.90;;;;;;5021868;28;20129;-72
2023/11/21 06:06:04;;;;;;;104.55;31.20;;;10.20;99.90;;;;;;5015970;28;20550;-74
2023/11/21 06:08:30;;;;;;;124.43;30.88;;;10.20;99.90;;;;;;5022352;28;20033;-76
2023/11/21 06:10:56;;;;;;;122.05;31.98;;;10.30;99.90;;;;;;5019407;28;20036;-72
2023/11/21 06:13:24;;;;;;;117.07;31.15;;;10.20;99.90;;;;;;5025476;27;20021;-73
2023/11/21 06:15:51;;;;;;;126.40;33.20;;;10.20;99.90;;;;;;5029806;27;20557;-73
2023/11/21 06:18:19;;;;;;;102.70;32.22;;;10.30;99.90;;;;;;5034726;28;20082;-74
2023/11/21 06:20:45;;;;;;;97.47;31.77;;;10.30;99.90;;;;;;5028243;27;20022;-73
2023/11/21 06:23:11;;;;;;;121.78;33.55;;;10.30;99.90;;;;;;5022081;27;20123;-72
2023/11/21 06:25:37;;;;;;;265.25;41.28;;;10.20;99.90;;;;;;5042510;27;20037;-76
2023/11/21 06:28:03;;;;;;;98.00;30.88;;;10.30;99.90;;;;;;5027257;27;20056;-75
2023/11/21 06:30:28;;;;;;;87.47;30.90;;;10.30;99.90;;;;;;5028273;27;20025;-75
2023/11/21 06:32:55;;;;;;;105.20;33.47;;;10.30;99.90;;;;;;5026969;27;20034;-71
2023/11/21 06:35:21;;;;;;;86.00;30.27;;;10.30;99.90;;;;;;5032288;27;20097;-76
2023/11/21 06:37:47;;;;;;;170.45;38.40;;;10.30;99.90;;;;;;5024884;27;20109;-71
2023/11/21 06:40:15;;;;;;;106.03;32.85;;;10.20;99.90;;;;;;5033206;27;20088;-72
2023/11/21 06:42:41;;;;;;;98.50;31.52;;;10.20;99.90;;;;;;5028909;27;20533;-72
2023/11/21 06:45:07;;;;;;;41.72;19.33;;;10.30;99.90;;;;;;5036062;27;20025;-70
2023/11/21 06:47:33;;;;;;;97.68;32.25;;;10.40;99.90;;;;;;5027686;27;20033;-71
2023/11/21 06:50:00;;;;;;;128.43;36.88;;;10.40;99.90;;;;;;5024265;27;20033;-71
2023/11/21 06:52:26;;;;;;;96.07;31.90;;;10.30;99.90;;;;;;5044285;27;20075;-71
2023/11/21 06:54:52;;;;;;;91.07;31.88;;;10.20;99.90;;;;;;5039041;27;20096;-71
2023/11/21 06:57:17;;;;;;;114.00;34.55;;;10.20;99.90;;;;;;5049025;27;20013;-73
2023/11/21 06:59:44;;;;;;;95.80;33.55;;;10.20;99.90;;;;;;5034114;27;20025;-72
2023/11/21 07:02:09;;;;;;;98.90;33.22;;;10.20;99.90;;;;;;5037427;27;20013;-73
2023/11/21 07:04:38;;;;;;;105.43;34.20;;;10.20;99.90;;;;;;5055879;27;20748;-72
2023/11/21 07:07:06;;;;;;;106.75;33.20;;;10.20;99.90;;;;;;5029156;27;20046;-72
2023/11/21 07:09:32;;;;;;;105.13;33.42;;;10.20;99.90;;;;;;5032017;27;20530;-72
2023/11/21 07:11:58;;;;;;;93.78;32.33;;;10.30;99.90;;;;;;5033382;27;20030;-72
2023/11/21 07:14:23;;;;;;;116.55;34.80;;;10.40;99.90;;;;;;5041304;27;20463;-72
2023/11/21 07:16:49;;;;;;;119.15;34.53;;;10.40;99.90;;;;;;5039962;27;20023;-72
2023/11/21 07:19:15;;;;;;;146.73;39.92;;;10.40;99.90;;;;;;5023720;27;20033;-72
2023/11/21 07:21:42;;;;;;;189.63;39.45;;;10.50;99.90;;;;;;5038198;27;20042;-72
2023/11/21 07:24:09;;;;;;;182.40;39.67;;;10.40;99.90;;;;;;5035306;27;20078;-76
2023/11/21 07:26:35;;;;;;;153.60;38.92;;;10.30;99.90;;;;;;5031254;27;20076;-74
2023/11/21 07:29:02;;;;;;;129.93;36.97;;;10.40;99.90;;;;;;5030882;27;20057;-72
2023/11/21 07:31:29;;;;;;;110.35;34.45;;;10.40;99.90;;;;;;5035949;27;20030;-75
2023/11/21 07:33:58;;;;;;;149.48;36.92;;;10.40;99.90;;;;;;5026549;27;20842;-72
2023/11/21 07:36:24;;;;;;;174.82;39.65;;;10.40;99.90;;;;;;5027560;27;20030;-74
2023/11/21 07:38:50;;;;;;;113.40;35.58;;;10.40;99.90;;;;;;5038482;27;20390;-74
2023/11/21 07:41:17;;;;;;;174.32;38.90;;;10.40;99.90;;;;;;5030266;27;20030;-71
2023/11/21 07:43:44;;;;;;;122.53;34.63;;;10.40;99.90;;;;;;5029959;27;20534;-73
2023/11/21 07:46:10;;;;;;;137.88;36.13;;;10.40;99.90;;;;;;5032047;27;20051;-73
2023/11/21 07:48:36;;;;;;;123.22;35.22;;;10.50;99.90;;;;;;5045528;27;20033;-76
2023/11/21 07:51:05;;;;;;;174.75;37.65;;;10.50;99.90;;;;;;5033579;27;20036;-75
2023/11/21 07:53:31;;;;;;;111.53;32.47;;;10.50;99.90;;;;;;5019557;27;20029;-74
2023/11/21 07:55:58;;;;;;;122.00;34.03;;;10.50;99.90;;;;;;5034255;27;20027;-75
2023/11/21 07:58:23;;;;;;;145.70;36.40;;;10.50;99.90;;;;;;5038481;27;20021;-74
2023/11/21 08:00:50;;;;;;;179.68;36.72;;;10.50;99.90;;;;;;5031214;27;20026;-73
2023/11/21 08:03:16;;;;;;;154.07;37.38;;;10.60;99.90;;;;;;5033030;27;20049;-73
2023/11/21 08:05:42;;;;;;;136.98;36.33;;;10.60;99.90;;;;;;5038240;27;20440;-76
2023/11/21 08:08:08;;;;;;;159.27;38.00;;;10.60;99.90;;;;;;5026571;27;20021;-75
2023/11/21 08:10:35;;;;;;;174.63;41.17;;;10.60;99.90;;;;;;5021253;27;20094;-76
2023/11/21 08:13:02;;;;;;;177.68;41.58;;;10.60;99.90;;;;;;5032137;27;20493;-76
2023/11/21 08:15:28;;;;;;;253.35;45.08;;;10.60;99.90;;;;;;5037039;27;20034;-73
2023/11/21 08:17:53;;;;;;;192.23;40.13;;;10.70;99.90;;;;;;5036069;27;20387;-75
2023/11/21 08:20:19;;;;;;;181.35;39.97;;;10.70;99.90;;;;;;5033793;27;20026;-73
2023/11/21 08:22:47;;;;;;;180.40;41.08;;;10.70;99.90;;;;;;5019735;27;20044;-72
2023/11/21 08:25:13;;;;;;;264.95;44.63;;;10.70;99.90;;;;;;5025734;27;20026;-73
2023/11/21 08:27:38;;;;;;;191.23;42.42;;;10.80;99.90;;;;;;5030994;27;20379;-72
2023/11/21 08:30:05;;;;;;;209.88;44.88;;;10.70;99.90;;;;;;5020808;27;20497;-72
2023/11/21 08:32:32;;;;;;;191.02;40.72;;;10.80;99.90;;;;;;5034742;27;20025;-73
2023/11/21 08:35:01;;;;;;;216.05;44.58;;;10.80;99.90;;;;;;5027588;27;20508;-72
2023/11/21 08:37:30;;;;;;;191.02;43.53;;;10.80;99.90;;;;;;5034429;27;20110;-72
2023/11/21 08:39:59;;;;;;;191.38;45.05;;;10.70;99.90;;;;;;5037255;27;20040;-74
2023/11/21 08:42:24;;;;;;;185.45;42.45;;;10.80;99.90;;;;;;5034246;27;20026;-72
2023/11/21 08:44:51;;;;;;;173.90;42.22;;;10.90;99.90;;;;;;5026432;27;20473;-75
2023/11/21 08:47:16;;;;;;;213.50;46.83;;;10.90;99.90;;;;;;5026530;27;20026;-73
2023/11/21 08:49:42;;;;;;;190.05;46.88;;;10.90;99.90;;;;;;5035152;27;20485;-72
2023/11/21 08:52:08;;;;;;;199.25;44.63;;;11.00;99.90;;;;;;5034034;27;20038;-73
2023/11/21 08:54:34;;;;;;;211.80;48.15;;;10.90;99.90;;;;;;5031263;27;20029;-72
2023/11/21 08:57:00;;;;;;;239.23;52.70;;;10.90;99.90;;;;;;5017658;27;20049;-73
2023/11/21 08:59:26;;;;;;;201.05;45.33;;;10.90;99.90;;;;;;5026051;27;20027;-73
2023/11/21 09:01:52;;;;;;;221.70;49.70;;;10.90;99.90;;;;;;5035441;27;20026;-72
2023/11/21 09:04:17;;;;;;;249.05;52.45;;;11.00;99.90;;;;;;5035474;27;20373;-72
2023/11/21 09:06:43;;;;;;;208.18;47.47;;;11.10;99.90;;;;;;5026723;27;20037;-73
2023/11/21 09:09:10;;;;;;;236.88;52.53;;;11.10;99.90;;;;;;5025261;27;20033;-73
2023/11/21 09:11:36;;;;;;;243.15;54.22;;;11.10;99.90;;;;;;5033258;27;20041;-71
2023/11/21 09:14:03;;;;;;;244.35;54.05;;;11.10;99.90;;;;;;5031385;27;20028;-72
2023/11/21 09:16:29;;;;;;;293.77;56.15;;;11.10;99.90;;;;;;5015486;27;20037;-71
2023/11/21 09:18:55;;;;;;;243.05;52.70;;;11.10;99.90;;;;;;5017811;27;20037;-72
2023/11/21 09:21:20;;;;;;;236.88;52.10;;;11.10;99.90;;;;;;5038403;27;20056;-72
2023/11/21 09:23:48;;;;;;;202.63;48.47;;;11.10;99.90;;;;;;5034697;27;20049;-72
2023/11/21 09:26:16;;;;;;;256.63;54.60;;;11.10;99.90;;;;;;5029176;27;20033;-72
2023/11/21 09:28:46;;;;;;;214.75;52.38;;;11.10;99.90;;;;;;5030639;27;20025;-73
2023/11/21 09:31:12;;;;;;;204.20;50.50;;;11.10;99.90;;;;;;5014204;28;20401;-73
2023/11/21 09:33:38;;;;;;;251.88;54.83;;;11.20;99.90;;;;;;5031673;27;20104;-73
2023/11/21 09:36:04;;;;;;;222.15;53.38;;;11.20;99.90;;;;;;5030440;27;20032;-75
2023/11/21 09:38:31;;;;;;;238.40;56.40;;;11.30;99.90;;;;;;5027526;27;20140;-73
2023/11/21 09:40:58;;;;;;;241.57;55.25;;;11.30;99.90;;;;;;5033419;27;20040;-74
2023/11/21 09:43:27;;;;;;;207.02;51.13;;;11.30;99.90;;;;;;5031254;27;20038;-71
2023/11/21 09:46:06;;;;;;;218.02;53.75;;;11.40;99.90;;;;;;5021311;27;20501;-76
2023/11/21 09:48:34;;;;;;;235.73;53.58;;;11.30;99.90;;;;;;5021357;28;20390;-72
2023/11/21 09:51:01;;;;;;;247.52;59.00;;;11.40;99.90;;;;;;5025431;27;20025;-75
2023/11/21 09:53:29;;;;;;;222.68;54.38;;;11.40;99.90;;;;;;5034508;28;20017;-73
2023/11/21 09:55:56;;;;;;;205.05;53.00;;;11.50;99.90;;;;;;5029140;27;20038;-75
2023/11/21 09:58:23;;;;;;;176.10;48.53;;;11.50;99.90;;;;;;5029264;27;20026;-73
2023/11/21 10:00:52;;;;;;;191.65;52.13;;;11.60;99.90;;;;;;5018408;28;20739;-74
2023/11/21 10:03:18;;;;;;;194.98;51.05;;;11.50;99.90;;;;;;5024094;27;20025;-72
2023/11/21 10:05:47;;;;;;;185.35;50.65;;;11.50;99.90;;;;;;5029365;27;20513;-75
2023/11/21 10:08:13;;;;;;;170.35;49.53;;;11.50;99.90;;;;;;5020540;27;20022;-74
2023/11/21 10:10:45;;;;;;;169.93;48.72;;;11.60;99.90;;;;;;5027926;28;20383;-76
2023/11/21 10:13:16;;;;;;;178.70;50.67;;;11.60;99.90;;;;;;5021057;28;20116;-75
2023/11/21 10:15:48;;;;;;;270.58;57.65;;;11.50;99.90;;;;;;5028598;27;20109;-75
2023/11/21 10:18:15;;;;;;;167.50;49.63;;;11.50;99.90;;;;;;5028871;27;20440;-75
2023/11/21 10:20:41;;;;;;;192.90;50.10;;;11.50;99.90;;;;;;5032090;28;20466;-74
2023/11/21 10:23:11;;;;;;;186.20;49.97;;;11.60;99.90;;;;;;5033961;28;20022;-76
2023/11/21 10:25:37;;;;;;;169.55;49.67;;;11.50;99.90;;;;;;5019325;28;20034;-76
2023/11/21 10:28:07;;;;;;;152.10;48.13;;;11.60;99.90;;;;;;5031098;28;20035;-74
2023/11/21 10:30:36;;;;;;;176.50;50.13;;;11.70;99.90;;;;;;5017934;28;20109;-75
2023/11/21 10:33:03;;;;;;;164.25;48.92;;;11.70;99.90;;;;;;5020264;28;20061;-75
2023/11/21 10:35:53;;;;;;;149.00;48.08;;;11.70;99.90;;;;;;5011524;28;20013;-75
2023/11/21 10:38:21;;;;;;;176.52;54.42;;;11.70;99.90;;;;;;5033365;28;20031;-75
2023/11/21 10:40:47;;;;;;;154.75;49.03;;;11.70;99.90;;;;;;5034654;28;20025;-75
2023/11/21 10:43:14;;;;;;;196.23;57.20;;;11.70;99.90;;;;;;5036973;27;20025;-74
2023/11/21 10:45:42;;;;;;;164.48;51.75;;;11.70;99.90;;;;;;5023018;28;20030;-73
2023/11/21 10:48:17;;;;;;;174.88;51.88;;;11.70;99.90;;;;;;5031196;28;20037;-73
2023/11/21 10:50:45;;;;;;;124.55;44.72;;;11.80;99.90;;;;;;5029307;28;20097;-73
2023/11/21 10:53:14;;;;;;;119.95;41.95;;;11.80;99.90;;;;;;5032670;28;20029;-73
2023/11/21 10:55:39;;;;;;;155.63;49.33;;;11.80;99.90;;;;;;5033579;28;20055;-75
2023/11/21 10:58:06;;;;;;;118.72;43.22;;;11.80;99.90;;;;;;5027995;28;20114;-74
2023/11/21 11:00:34;;;;;;;141.25;44.97;;;11.90;99.90;;;;;;5038179;28;20493;-73
2023/11/21 11:03:00;;;;;;;123.15;45.70;;;11.90;99.90;;;;;;5035559;28;20036;-75
2023/11/21 11:05:35;;;;;;;132.73;44.85;;;11.90;99.90;;;;;;5034333;28;20146;-75
2023/11/21 11:08:07;;;;;;;142.20;46.72;;;11.90;99.90;;;;;;5024780;28;20541;-75
2023/11/21 11:10:34;;;;;;;114.25;42.67;;;11.90;99.90;;;;;;5036520;27;20028;-72
2023/11/21 11:12:59;;;;;;;125.22;44.90;;;11.90;99.90;;;;;;5038677;27;20546;-73
2023/11/21 11:15:26;;;;;;;116.00;43.22;;;11.90;99.90;;;;;;5035439;27;20022;-79
2023/11/21 11:17:59;;;;;;;130.50;47.17;;;12.00;99.90;;;;;;5034062;27;20470;-73
2023/11/21 11:20:33;;;;;;;129.48;46.85;;;12.00;99.90;;;;;;5039541;27;20540;-73
2023/11/21 11:23:23;;;;;;;117.15;44.38;;;11.90;99.90;;;;;;5034653;27;20113;-75
2023/11/21 11:26:12;;;;;;;118.90;45.35;;;11.90;99.90;;;;;;5030720;27;20043;-73
2023/11/21 11:28:57;;;;;;;129.52;47.28;;;11.90;99.90;;;;;;5036179;27;20032;-73
2023/11/21 11:31:57;;;;;;;104.70;41.80;;;11.90;99.90;;;;;;5032267;28;20048;-73
2023/11/21 11:34:32;;;;;;;127.78;43.47;;;11.90;99.90;;;;;;5035842;27;20564;-76
2023/11/21 11:37:08;;;;;;;110.78;40.08;;;11.90;99.90;;;;;;5026809;27;20061;-74
2023/11/21 11:39:41;;;;;;;122.30;41.67;;;11.90;99.90;;;;;;5027734;27;20066;-76
2023/11/21 11:42:16;;;;;;;135.65;42.80;;;11.90;99.90;;;;;;5036951;27;20776;-77
2023/11/21 11:44:57;;;;;;;105.47;40.17;;;12.00;99.90;;;;;;5040159;27;20034;-75
2023/11/21 11:47:25;;;;;;;112.22;40.53;;;12.00;99.90;;;;;;5037782;27;20032;-74
2023/11/21 11:50:00;;;;;;;110.65;40.35;;;12.00;99.90;;;;;;5033791;27;20151;-74
2023/11/21 11:52:35;;;;;;;112.38;39.63;;;12.00;99.90;;;;;;5031567;27;20041;-74
2023/11/21 11:55:03;;;;;;;105.50;37.83;;;12.00;99.90;;;;;;5028108;27;20033;-73
2023/11/21 11:57:34;;;;;;;106.38;37.55;;;12.10;99.90;;;;;;5035942;27;20028;-72
2023/11/21 12:00:32;;;;;;;97.28;37.00;;;12.00;99.90;;;;;;5030240;27;20048;-73
2023/11/21 12:03:05;;;;;;;94.90;36.15;;;12.10;99.90;;;;;;5035166;27;20033;-73
2023/11/21 12:05:33;;;;;;;103.03;36.45;;;12.10;99.90;;;;;;5035051;27;20036;-73
2023/11/21 12:08:03;;;;;;;103.32;36.13;;;12.10;99.90;;;;;;5029738;27;20053;-75
2023/11/21 12:10:37;;;;;;;96.40;38.10;;;12.10;99.90;;;;;;5035301;27;20021;-73
2023/11/21 12:13:05;;;;;;;88.03;33.28;;;12.10;99.90;;;;;;5034477;27;20026;-73
2023/11/21 12:15:31;;;;;;;82.88;33.40;;;12.10;99.90;;;;;;5029138;27;20098;-72
2023/11/21 12:18:01;;;;;;;90.07;35.80;;;12.10;99.90;;;;;;5027652;27;20037;-73
2023/11/21 12:20:27;;;;;;;88.63;34.33;;;12.10;99.90;;;;;;5036107;27;20032;-73
2023/11/21 12:23:00;;;;;;;100.68;35.78;;;12.10;99.90;;;;;;5029241;27;20029;-73